sensor_id;sensor_type;location;lat;lon;timestamp;P1;durP1;ratioP1;P2;durP2;ratioP2
16450;SDS011;12243;42.708;23.310;2023-04-01T00:02:12;22.90;;;14.17;;
16450;SDS011;12243;42.708;23.310;2023-04-01T00:04:39;24.87;;;13.60;;
16450;SDS011;12243;42.708;23.310;2023-04-01T00:07:06;18.37;;;13.00;;
16450;SDS011;12243;42.708;23.310;2023-04-01T00:09:35;19.70;;;13.17;;
16450;SDS011;12243;42.708;23.310;2023-04-01T00:12:02;23.13;;;13.57;;
16450;SDS011;12243;42.708;23.310;2023-04-01T00:14:29;22.87;;;14.07;;
16450;SDS011;12243;42.708;23.310;2023-04-01T00:16:56;23.53;;;14.67;;
16450;SDS011;12243;42.708;23.310;2023-04-01T00:19:23;23.73;;;14.60;;
16450;SDS011;12243;42.708;23.310;2023-04-01T00:21:50;27.57;;;14.47;;
16450;SDS011;12243;42.708;23.310;2023-04-01T00:24:17;22.83;;;12.77;;
16450;SDS011;12243;42.708;23.310;2023-04-01T00:26:45;21.10;;;13.80;;
16450;SDS011;12243;42.708;23.310;2023-04-01T00:29:13;26.87;;;18.30;;
16450;SDS011;12243;42.708;23.310;2023-04-01T00:31:40;30.60;;;20.97;;
16450;SDS011;12243;42.708;23.310;2023-04-01T00:34:07;25.77;;;16.77;;
16450;SDS011;12243;42.708;23.310;2023-04-01T00:36:34;26.37;;;16.17;;
16450;SDS011;12243;42.708;23.310;2023-04-01T00:39:01;25.97;;;15.93;;
16450;SDS011;12243;42.708;23.310;2023-04-01T00:41:28;20.57;;;14.27;;
16450;SDS011;12243;42.708;23.310;2023-04-01T00:46:46;22.53;;;14.17;;
16450;SDS011;12243;42.708;23.310;2023-04-01T00:49:13;25.20;;;13.57;;
16450;SDS011;12243;42.708;23.310;2023-04-01T00:51:42;19.27;;;13.03;;
16450;SDS011;12243;42.708;23.310;2023-04-01T00:54:11;20.13;;;11.83;;
16450;SDS011;12243;42.708;23.310;2023-04-01T00:56:40;16.40;;;11.90;;
16450;SDS011;12243;42.708;23.310;2023-04-01T00:59:14;18.10;;;11.60;;
16450;SDS011;12243;42.708;23.310;2023-04-01T01:01:46;19.03;;;12.30;;
16450;SDS011;12243;42.708;23.310;2023-04-01T01:04:20;21.40;;;11.50;;
16450;SDS011;12243;42.708;23.310;2023-04-01T01:06:50;20.07;;;12.40;;
16450;SDS011;12243;42.708;23.310;2023-04-01T01:09:30;19.23;;;11.20;;
16450;SDS011;12243;42.708;23.310;2023-04-01T01:12:07;20.10;;;11.03;;
16450;SDS011;12243;42.708;23.310;2023-04-01T01:14:51;19.37;;;11.40;;
16450;SDS011;12243;42.708;23.310;2023-04-01T01:17:31;18.67;;;11.43;;
16450;SDS011;12243;42.708;23.310;2023-04-01T01:20:14;20.07;;;10.97;;
16450;SDS011;12243;42.708;23.310;2023-04-01T01:23:11;20.33;;;11.03;;
16450;SDS011;12243;42.708;23.310;2023-04-01T01:25:51;15.87;;;9.77;;
16450;SDS011;12243;42.708;23.310;2023-04-01T01:28:35;14.97;;;10.57;;
16450;SDS011;12243;42.708;23.310;2023-04-01T01:35:05;17.70;;;10.93;;
16450;SDS011;12243;42.708;23.310;2023-04-01T01:37:42;17.60;;;11.03;;
16450;SDS011;12243;42.708;23.310;2023-04-01T01:40:12;16.57;;;10.33;;
16450;SDS011;12243;42.708;23.310;2023-04-01T01:42:41;17.87;;;10.10;;
16450;SDS011;12243;42.708;23.310;2023-04-01T01:45:13;18.00;;;10.67;;
16450;SDS011;12243;42.708;23.310;2023-04-01T01:47:44;19.50;;;10.60;;
16450;SDS011;12243;42.708;23.310;2023-04-01T01:50:14;14.33;;;8.67;;
16450;SDS011;12243;42.708;23.310;2023-04-01T01:52:42;12.77;;;9.50;;
16450;SDS011;12243;42.708;23.310;2023-04-01T01:55:23;13.17;;;8.83;;
16450;SDS011;12243;42.708;23.310;2023-04-01T01:57:54;13.73;;;9.10;;
16450;SDS011;12243;42.708;23.310;2023-04-01T02:00:24;18.97;;;12.30;;
16450;SDS011;12243;42.708;23.310;2023-04-01T02:02:52;19.70;;;9.30;;
16450;SDS011;12243;42.708;23.310;2023-04-01T02:05:22;14.90;;;9.13;;
16450;SDS011;12243;42.708;23.310;2023-04-01T02:08:00;13.77;;;8.33;;
16450;SDS011;12243;42.708;23.310;2023-04-01T02:10:34;18.03;;;8.33;;
16450;SDS011;12243;42.708;23.310;2023-04-01T02:13:07;12.83;;;8.07;;
16450;SDS011;12243;42.708;23.310;2023-04-01T02:15:41;16.37;;;9.07;;
16450;SDS011;12243;42.708;23.310;2023-04-01T02:18:14;13.93;;;8.07;;
16450;SDS011;12243;42.708;23.310;2023-04-01T02:20:43;20.00;;;11.90;;
16450;SDS011;12243;42.708;23.310;2023-04-01T02:23:11;16.67;;;10.60;;
16450;SDS011;12243;42.708;23.310;2023-04-01T02:25:39;13.33;;;7.33;;
16450;SDS011;12243;42.708;23.310;2023-04-01T02:28:08;10.13;;;7.57;;
16450;SDS011;12243;42.708;23.310;2023-04-01T02:30:42;19.07;;;7.40;;
16450;SDS011;12243;42.708;23.310;2023-04-01T02:33:11;18.23;;;12.53;;
16450;SDS011;12243;42.708;23.310;2023-04-01T02:35:38;17.57;;;13.80;;
16450;SDS011;12243;42.708;23.310;2023-04-01T02:38:08;18.60;;;12.50;;
16450;SDS011;12243;42.708;23.310;2023-04-01T02:40:42;17.37;;;10.63;;
16450;SDS011;12243;42.708;23.310;2023-04-01T02:43:11;14.30;;;10.53;;
16450;SDS011;12243;42.708;23.310;2023-04-01T02:45:38;13.43;;;8.03;;
16450;SDS011;12243;42.708;23.310;2023-04-01T02:48:05;19.17;;;10.53;;
16450;SDS011;12243;42.708;23.310;2023-04-01T02:50:32;19.87;;;10.43;;
16450;SDS011;12243;42.708;23.310;2023-04-01T02:52:59;15.93;;;10.30;;
16450;SDS011;12243;42.708;23.310;2023-04-01T02:55:29;20.40;;;10.97;;
16450;SDS011;12243;42.708;23.310;2023-04-01T02:57:56;19.87;;;10.20;;
16450;SDS011;12243;42.708;23.310;2023-04-01T03:00:23;16.37;;;10.27;;
16450;SDS011;12243;42.708;23.310;2023-04-01T03:02:51;17.40;;;10.77;;
16450;SDS011;12243;42.708;23.310;2023-04-01T03:05:18;20.90;;;11.23;;
16450;SDS011;12243;42.708;23.310;2023-04-01T03:07:45;18.53;;;11.43;;
16450;SDS011;12243;42.708;23.310;2023-04-01T03:10:12;17.23;;;11.70;;
16450;SDS011;12243;42.708;23.310;2023-04-01T03:12:41;14.93;;;11.17;;
16450;SDS011;12243;42.708;23.310;2023-04-01T03:15:09;19.47;;;11.37;;
16450;SDS011;12243;42.708;23.310;2023-04-01T03:17:38;20.37;;;11.50;;
16450;SDS011;12243;42.708;23.310;2023-04-01T03:20:06;21.57;;;12.93;;
16450;SDS011;12243;42.708;23.310;2023-04-01T03:22:36;21.43;;;11.97;;
16450;SDS011;12243;42.708;23.310;2023-04-01T03:25:03;22.77;;;13.93;;
16450;SDS011;12243;42.708;23.310;2023-04-01T03:27:32;21.63;;;12.00;;
16450;SDS011;12243;42.708;23.310;2023-04-01T03:30:02;26.53;;;14.80;;
16450;SDS011;12243;42.708;23.310;2023-04-01T03:32:34;40.73;;;20.57;;
16450;SDS011;12243;42.708;23.310;2023-04-01T03:35:01;22.33;;;13.33;;
16450;SDS011;12243;42.708;23.310;2023-04-01T03:37:28;15.73;;;11.27;;
16450;SDS011;12243;42.708;23.310;2023-04-01T03:39:55;13.53;;;9.77;;
16450;SDS011;12243;42.708;23.310;2023-04-01T03:42:22;15.20;;;9.27;;
16450;SDS011;12243;42.708;23.310;2023-04-01T03:44:49;14.37;;;9.40;;
16450;SDS011;12243;42.708;23.310;2023-04-01T03:47:17;17.90;;;9.63;;
16450;SDS011;12243;42.708;23.310;2023-04-01T03:49:44;17.07;;;9.90;;
16450;SDS011;12243;42.708;23.310;2023-04-01T03:52:11;16.23;;;11.37;;
16450;SDS011;12243;42.708;23.310;2023-04-01T03:54:39;17.97;;;10.33;;
16450;SDS011;12243;42.708;23.310;2023-04-01T03:57:06;16.77;;;10.93;;
16450;SDS011;12243;42.708;23.310;2023-04-01T03:59:33;18.20;;;10.47;;
16450;SDS011;12243;42.708;23.310;2023-04-01T04:02:01;15.97;;;10.30;;
16450;SDS011;12243;42.708;23.310;2023-04-01T04:04:30;19.60;;;10.77;;
16450;SDS011;12243;42.708;23.310;2023-04-01T04:06:57;15.23;;;10.90;;
16450;SDS011;12243;42.708;23.310;2023-04-01T04:09:25;16.50;;;11.40;;
16450;SDS011;12243;42.708;23.310;2023-04-01T04:11:53;19.67;;;10.90;;
16450;SDS011;12243;42.708;23.310;2023-04-01T04:14:20;18.57;;;11.00;;
16450;SDS011;12243;42.708;23.310;2023-04-01T04:16:47;16.33;;;10.17;;
16450;SDS011;12243;42.708;23.310;2023-04-01T04:19:14;22.10;;;11.50;;
16450;SDS011;12243;42.708;23.310;2023-04-01T04:21:43;17.97;;;10.07;;
16450;SDS011;12243;42.708;23.310;2023-04-01T04:24:11;28.53;;;15.20;;
16450;SDS011;12243;42.708;23.310;2023-04-01T04:27:00;15.80;;;10.03;;
16450;SDS011;12243;42.708;23.310;2023-04-01T04:29:28;20.70;;;11.03;;
16450;SDS011;12243;42.708;23.310;2023-04-01T04:31:55;18.10;;;10.90;;
16450;SDS011;12243;42.708;23.310;2023-04-01T04:34:22;16.33;;;9.63;;
16450;SDS011;12243;42.708;23.310;2023-04-01T04:36:51;17.07;;;9.80;;
16450;SDS011;12243;42.708;23.310;2023-04-01T04:39:19;12.53;;;8.70;;
16450;SDS011;12243;42.708;23.310;2023-04-01T04:41:47;18.10;;;8.83;;
16450;SDS011;12243;42.708;23.310;2023-04-01T04:44:14;11.83;;;9.90;;
16450;SDS011;12243;42.708;23.310;2023-04-01T04:46:41;23.33;;;12.47;;
16450;SDS011;12243;42.708;23.310;2023-04-01T04:49:13;19.27;;;10.20;;
16450;SDS011;12243;42.708;23.310;2023-04-01T04:51:40;16.50;;;9.93;;
16450;SDS011;12243;42.708;23.310;2023-04-01T04:54:10;18.67;;;9.67;;
16450;SDS011;12243;42.708;23.310;2023-04-01T04:56:57;13.87;;;8.73;;
16450;SDS011;12243;42.708;23.310;2023-04-01T04:59:26;13.37;;;8.97;;
16450;SDS011;12243;42.708;23.310;2023-04-01T05:02:05;15.53;;;9.30;;
16450;SDS011;12243;42.708;23.310;2023-04-01T05:04:34;13.73;;;9.03;;
16450;SDS011;12243;42.708;23.310;2023-04-01T05:07:02;14.73;;;9.50;;
16450;SDS011;12243;42.708;23.310;2023-04-01T05:09:32;14.90;;;8.30;;
16450;SDS011;12243;42.708;23.310;2023-04-01T05:11:59;17.20;;;10.03;;
16450;SDS011;12243;42.708;23.310;2023-04-01T05:14:33;15.90;;;10.43;;
16450;SDS011;12243;42.708;23.310;2023-04-01T05:17:08;16.33;;;9.83;;
16450;SDS011;12243;42.708;23.310;2023-04-01T05:19:36;17.37;;;9.37;;
16450;SDS011;12243;42.708;23.310;2023-04-01T05:22:03;18.57;;;9.60;;
16450;SDS011;12243;42.708;23.310;2023-04-01T05:24:32;14.97;;;9.10;;
16450;SDS011;12243;42.708;23.310;2023-04-01T05:26:59;19.67;;;9.33;;
16450;SDS011;12243;42.708;23.310;2023-04-01T05:29:28;12.23;;;9.07;;
16450;SDS011;12243;42.708;23.310;2023-04-01T05:32:02;18.93;;;10.47;;
16450;SDS011;12243;42.708;23.310;2023-04-01T05:34:30;21.17;;;10.50;;
16450;SDS011;12243;42.708;23.310;2023-04-01T05:36:57;20.87;;;11.00;;
16450;SDS011;12243;42.708;23.310;2023-04-01T05:39:23;14.87;;;9.70;;
16450;SDS011;12243;42.708;23.310;2023-04-01T05:41:52;17.37;;;9.13;;
16450;SDS011;12243;42.708;23.310;2023-04-01T05:44:19;16.83;;;8.67;;
16450;SDS011;12243;42.708;23.310;2023-04-01T05:47:09;16.00;;;8.27;;
16450;SDS011;12243;42.708;23.310;2023-04-01T05:49:36;12.83;;;8.37;;
16450;SDS011;12243;42.708;23.310;2023-04-01T05:52:03;19.27;;;7.23;;
16450;SDS011;12243;42.708;23.310;2023-04-01T05:54:33;15.10;;;8.90;;
16450;SDS011;12243;42.708;23.310;2023-04-01T05:57:02;18.43;;;7.43;;
16450;SDS011;12243;42.708;23.310;2023-04-01T05:59:30;14.07;;;6.93;;
16450;SDS011;12243;42.708;23.310;2023-04-01T06:01:57;9.33;;;6.40;;
16450;SDS011;12243;42.708;23.310;2023-04-01T06:04:24;10.40;;;6.20;;
16450;SDS011;12243;42.708;23.310;2023-04-01T06:06:55;7.23;;;5.70;;
16450;SDS011;12243;42.708;23.310;2023-04-01T06:09:23;9.77;;;6.00;;
16450;SDS011;12243;42.708;23.310;2023-04-01T06:12:08;13.57;;;5.53;;
16450;SDS011;12243;42.708;23.310;2023-04-01T06:14:59;10.53;;;5.63;;
16450;SDS011;12243;42.708;23.310;2023-04-01T06:17:41;10.90;;;5.63;;
16450;SDS011;12243;42.708;23.310;2023-04-01T06:20:22;11.37;;;6.10;;
16450;SDS011;12243;42.708;23.310;2023-04-01T06:23:05;8.40;;;5.83;;
16450;SDS011;12243;42.708;23.310;2023-04-01T06:25:58;10.37;;;5.67;;
16450;SDS011;12243;42.708;23.310;2023-04-01T06:28:48;7.37;;;5.10;;
16450;SDS011;12243;42.708;23.310;2023-04-01T06:31:35;8.60;;;5.30;;
16450;SDS011;12243;42.708;23.310;2023-04-01T06:34:29;14.63;;;6.73;;
16450;SDS011;12243;42.708;23.310;2023-04-01T06:37:26;8.30;;;5.60;;
16450;SDS011;12243;42.708;23.310;2023-04-01T06:40:17;10.27;;;5.63;;
16450;SDS011;12243;42.708;23.310;2023-04-01T06:43:05;8.53;;;5.40;;
16450;SDS011;12243;42.708;23.310;2023-04-01T06:46:00;11.70;;;4.90;;
16450;SDS011;12243;42.708;23.310;2023-04-01T06:49:03;10.10;;;4.93;;
16450;SDS011;12243;42.708;23.310;2023-04-01T06:52:04;9.20;;;4.23;;
16450;SDS011;12243;42.708;23.310;2023-04-01T06:55:02;9.70;;;4.30;;
16450;SDS011;12243;42.708;23.310;2023-04-01T06:58:11;10.77;;;7.30;;
16450;SDS011;12243;42.708;23.310;2023-04-01T07:00:46;7.27;;;4.33;;
16450;SDS011;12243;42.708;23.310;2023-04-01T07:03:18;7.80;;;4.43;;
16450;SDS011;12243;42.708;23.310;2023-04-01T07:05:48;10.23;;;4.37;;
16450;SDS011;12243;42.708;23.310;2023-04-01T07:08:17;10.33;;;4.10;;
16450;SDS011;12243;42.708;23.310;2023-04-01T07:10:50;11.03;;;5.20;;
16450;SDS011;12243;42.708;23.310;2023-04-01T07:13:52;8.60;;;4.70;;
16450;SDS011;12243;42.708;23.310;2023-04-01T07:16:24;11.70;;;4.80;;
16450;SDS011;12243;42.708;23.310;2023-04-01T07:18:58;8.77;;;4.80;;
16450;SDS011;12243;42.708;23.310;2023-04-01T07:21:45;7.97;;;4.57;;
16450;SDS011;12243;42.708;23.310;2023-04-01T07:24:24;10.23;;;5.30;;
16450;SDS011;12243;42.708;23.310;2023-04-01T07:27:08;10.90;;;5.73;;
16450;SDS011;12243;42.708;23.310;2023-04-01T07:29:37;7.27;;;5.13;;
16450;SDS011;12243;42.708;23.310;2023-04-01T07:35:15;8.60;;;5.37;;
16450;SDS011;12243;42.708;23.310;2023-04-01T07:37:52;8.67;;;5.43;;
16450;SDS011;12243;42.708;23.310;2023-04-01T07:40:32;10.27;;;5.67;;
16450;SDS011;12243;42.708;23.310;2023-04-01T07:43:11;9.73;;;5.90;;
16450;SDS011;12243;42.708;23.310;2023-04-01T07:46:05;9.57;;;5.50;;
16450;SDS011;12243;42.708;23.310;2023-04-01T07:48:46;9.13;;;5.43;;
16450;SDS011;12243;42.708;23.310;2023-04-01T07:51:19;14.60;;;6.47;;
16450;SDS011;12243;42.708;23.310;2023-04-01T07:53:51;11.40;;;5.97;;
16450;SDS011;12243;42.708;23.310;2023-04-01T07:56:28;11.07;;;5.53;;
16450;SDS011;12243;42.708;23.310;2023-04-01T07:59:03;10.70;;;5.20;;
16450;SDS011;12243;42.708;23.310;2023-04-01T08:01:58;9.27;;;5.37;;
16450;SDS011;12243;42.708;23.310;2023-04-01T08:04:46;11.83;;;5.87;;
16450;SDS011;12243;42.708;23.310;2023-04-01T08:07:24;13.00;;;5.60;;
16450;SDS011;12243;42.708;23.310;2023-04-01T08:10:22;7.53;;;4.73;;
16450;SDS011;12243;42.708;23.310;2023-04-01T08:13:15;11.87;;;5.30;;
16450;SDS011;12243;42.708;23.310;2023-04-01T08:16:12;12.10;;;5.80;;
16450;SDS011;12243;42.708;23.310;2023-04-01T08:18:52;7.53;;;5.23;;
16450;SDS011;12243;42.708;23.310;2023-04-01T08:21:28;11.47;;;5.40;;
16450;SDS011;12243;42.708;23.310;2023-04-01T08:24:04;15.57;;;5.10;;
16450;SDS011;12243;42.708;23.310;2023-04-01T08:26:41;11.40;;;5.57;;
16450;SDS011;12243;42.708;23.310;2023-04-01T08:29:13;10.43;;;6.33;;
16450;SDS011;12243;42.708;23.310;2023-04-01T08:31:48;13.40;;;5.83;;
16450;SDS011;12243;42.708;23.310;2023-04-01T08:34:23;9.37;;;5.10;;
16450;SDS011;12243;42.708;23.310;2023-04-01T08:36:57;8.83;;;4.63;;
16450;SDS011;12243;42.708;23.310;2023-04-01T08:39:31;10.27;;;5.43;;
16450;SDS011;12243;42.708;23.310;2023-04-01T08:42:09;8.13;;;4.30;;
16450;SDS011;12243;42.708;23.310;2023-04-01T08:44:57;9.33;;;4.97;;
16450;SDS011;12243;42.708;23.310;2023-04-01T08:47:38;8.63;;;4.80;;
16450;SDS011;12243;42.708;23.310;2023-04-01T08:50:26;9.15;;;4.75;;
16450;SDS011;12243;42.708;23.310;2023-04-01T08:53:18;8.30;;;4.65;;
16450;SDS011;12243;42.708;23.310;2023-04-01T08:56:00;10.60;;;4.22;;
16450;SDS011;12243;42.708;23.310;2023-04-01T08:58:48;11.13;;;4.00;;
16450;SDS011;12243;42.708;23.310;2023-04-01T09:01:38;8.48;;;3.53;;
16450;SDS011;12243;42.708;23.310;2023-04-01T09:04:47;9.13;;;4.45;;
16450;SDS011;12243;42.708;23.310;2023-04-01T09:07:39;8.38;;;4.07;;
16450;SDS011;12243;42.708;23.310;2023-04-01T09:13:50;6.35;;;3.55;;
16450;SDS011;12243;42.708;23.310;2023-04-01T09:16:40;6.72;;;3.53;;
16450;SDS011;12243;42.708;23.310;2023-04-01T09:19:33;5.68;;;3.75;;
16450;SDS011;12243;42.708;23.310;2023-04-01T09:22:31;6.90;;;3.35;;
16450;SDS011;12243;42.708;23.310;2023-04-01T09:25:14;7.60;;;3.60;;
16450;SDS011;12243;42.708;23.310;2023-04-01T09:28:07;8.98;;;3.55;;
16450;SDS011;12243;42.708;23.310;2023-04-01T09:34:00;5.70;;;3.33;;
16450;SDS011;12243;42.708;23.310;2023-04-01T09:37:10;6.07;;;3.60;;
16450;SDS011;12243;42.708;23.310;2023-04-01T09:39:46;5.72;;;3.17;;
16450;SDS011;12243;42.708;23.310;2023-04-01T09:42:37;5.10;;;3.10;;
16450;SDS011;12243;42.708;23.310;2023-04-01T09:45:31;7.35;;;3.45;;
16450;SDS011;12243;42.708;23.310;2023-04-01T09:48:17;9.32;;;3.80;;
16450;SDS011;12243;42.708;23.310;2023-04-01T09:50:56;5.38;;;3.42;;
16450;SDS011;12243;42.708;23.310;2023-04-01T09:53:45;5.85;;;3.42;;
16450;SDS011;12243;42.708;23.310;2023-04-01T09:56:59;8.45;;;3.88;;
16450;SDS011;12243;42.708;23.310;2023-04-01T10:00:27;5.45;;;3.25;;
16450;SDS011;12243;42.708;23.310;2023-04-01T10:09:58;11.82;;;4.45;;
16450;SDS011;12243;42.708;23.310;2023-04-01T10:19:12;8.25;;;3.30;;
16450;SDS011;12243;42.708;23.310;2023-04-01T10:21:57;6.35;;;3.17;;
16450;SDS011;12243;42.708;23.310;2023-04-01T10:24:45;8.55;;;3.42;;
16450;SDS011;12243;42.708;23.310;2023-04-01T10:27:46;8.75;;;2.95;;
16450;SDS011;12243;42.708;23.310;2023-04-01T10:34:09;8.68;;;3.42;;
16450;SDS011;12243;42.708;23.310;2023-04-01T10:37:03;16.67;;;3.75;;
16450;SDS011;12243;42.708;23.310;2023-04-01T10:40:00;11.73;;;3.60;;
16450;SDS011;12243;42.708;23.310;2023-04-01T11:06:39;8.27;;;3.83;;
16450;SDS011;12243;42.708;23.310;2023-04-01T11:25:15;5.53;;;3.93;;
16450;SDS011;12243;42.708;23.310;2023-04-01T11:28:43;10.73;;;4.25;;
16450;SDS011;12243;42.708;23.310;2023-04-01T11:31:24;8.67;;;4.40;;
16450;SDS011;12243;42.708;23.310;2023-04-01T11:34:04;7.33;;;4.67;;
16450;SDS011;12243;42.708;23.310;2023-04-01T11:36:43;9.60;;;5.07;;
16450;SDS011;12243;42.708;23.310;2023-04-01T11:39:29;6.30;;;2.80;;
16450;SDS011;12243;42.708;23.310;2023-04-01T11:42:28;7.63;;;2.87;;
16450;SDS011;12243;42.708;23.310;2023-04-01T11:45:25;5.40;;;2.20;;
16450;SDS011;12243;42.708;23.310;2023-04-01T11:48:08;6.07;;;2.57;;
16450;SDS011;12243;42.708;23.310;2023-04-01T11:51:09;5.33;;;2.33;;
16450;SDS011;12243;42.708;23.310;2023-04-01T11:53:49;3.27;;;2.17;;
16450;SDS011;12243;42.708;23.310;2023-04-01T11:56:31;6.07;;;3.03;;
16450;SDS011;12243;42.708;23.310;2023-04-01T11:59:26;7.50;;;3.40;;
16450;SDS011;12243;42.708;23.310;2023-04-01T12:02:11;6.87;;;2.77;;
16450;SDS011;12243;42.708;23.310;2023-04-01T12:04:53;4.70;;;3.10;;
16450;SDS011;12243;42.708;23.310;2023-04-01T12:07:34;4.90;;;3.20;;
16450;SDS011;12243;42.708;23.310;2023-04-01T12:10:21;8.27;;;3.50;;
16450;SDS011;12243;42.708;23.310;2023-04-01T12:12:55;4.33;;;3.40;;
16450;SDS011;12243;42.708;23.310;2023-04-01T12:15:30;5.27;;;3.27;;
16450;SDS011;12243;42.708;23.310;2023-04-01T12:18:13;7.97;;;4.10;;
16450;SDS011;12243;42.708;23.310;2023-04-01T12:20:49;5.63;;;3.77;;
16450;SDS011;12243;42.708;23.310;2023-04-01T12:23:38;6.20;;;3.90;;
16450;SDS011;12243;42.708;23.310;2023-04-01T12:26:21;7.40;;;4.03;;
16450;SDS011;12243;42.708;23.310;2023-04-01T12:29:06;7.83;;;4.07;;
16450;SDS011;12243;42.708;23.310;2023-04-01T12:31:42;5.83;;;3.70;;
16450;SDS011;12243;42.708;23.310;2023-04-01T12:34:32;6.17;;;4.17;;
16450;SDS011;12243;42.708;23.310;2023-04-01T12:37:08;7.83;;;4.37;;
16450;SDS011;12243;42.708;23.310;2023-04-01T12:42:52;6.87;;;4.10;;
16450;SDS011;12243;42.708;23.310;2023-04-01T12:45:31;8.90;;;4.47;;
16450;SDS011;12243;42.708;23.310;2023-04-01T12:51:24;7.67;;;4.10;;
16450;SDS011;12243;42.708;23.310;2023-04-01T12:57:13;7.77;;;4.17;;
16450;SDS011;12243;42.708;23.310;2023-04-01T12:59:57;5.73;;;4.13;;
16450;SDS011;12243;42.708;23.310;2023-04-01T13:02:44;10.50;;;7.97;;
16450;SDS011;12243;42.708;23.310;2023-04-01T13:05:36;14.63;;;10.83;;
16450;SDS011;12243;42.708;23.310;2023-04-01T13:08:27;7.23;;;3.30;;
16450;SDS011;12243;42.708;23.310;2023-04-01T13:11:09;5.63;;;3.97;;
16450;SDS011;12243;42.708;23.310;2023-04-01T13:13:54;7.87;;;4.60;;
16450;SDS011;12243;42.708;23.310;2023-04-01T13:16:39;7.23;;;3.87;;
16450;SDS011;12243;42.708;23.310;2023-04-01T13:19:13;7.50;;;4.10;;
16450;SDS011;12243;42.708;23.310;2023-04-01T13:21:50;8.23;;;5.30;;
16450;SDS011;12243;42.708;23.310;2023-04-01T13:24:30;6.83;;;4.20;;
16450;SDS011;12243;42.708;23.310;2023-04-01T13:27:09;8.60;;;4.43;;
16450;SDS011;12243;42.708;23.310;2023-04-01T13:29:44;3.73;;;3.40;;
16450;SDS011;12243;42.708;23.310;2023-04-01T13:32:22;6.57;;;4.30;;
16450;SDS011;12243;42.708;23.310;2023-04-01T13:40:47;6.73;;;3.73;;
16450;SDS011;12243;42.708;23.310;2023-04-01T13:43:23;4.77;;;3.77;;
16450;SDS011;12243;42.708;23.310;2023-04-01T13:46:05;3.10;;;2.70;;
16450;SDS011;12243;42.708;23.310;2023-04-01T13:52:17;4.43;;;3.00;;
16450;SDS011;12243;42.708;23.310;2023-04-01T13:55:21;2.90;;;2.33;;
16450;SDS011;12243;42.708;23.310;2023-04-01T13:58:02;3.93;;;2.93;;
16450;SDS011;12243;42.708;23.310;2023-04-01T14:00:45;2.37;;;2.10;;
16450;SDS011;12243;42.708;23.310;2023-04-01T14:03:27;4.03;;;2.33;;
16450;SDS011;12243;42.708;23.310;2023-04-01T14:06:09;2.20;;;2.00;;
16450;SDS011;12243;42.708;23.310;2023-04-01T14:08:48;1.90;;;1.80;;
16450;SDS011;12243;42.708;23.310;2023-04-01T14:11:39;1.33;;;1.33;;
16450;SDS011;12243;42.708;23.310;2023-04-01T14:14:18;1.83;;;1.55;;
16450;SDS011;12243;42.708;23.310;2023-04-01T14:16:55;2.00;;;1.40;;
16450;SDS011;12243;42.708;23.310;2023-04-01T14:19:31;1.75;;;1.65;;
16450;SDS011;12243;42.708;23.310;2023-04-01T14:22:13;3.40;;;2.77;;
16450;SDS011;12243;42.708;23.310;2023-04-01T14:25:02;7.60;;;5.60;;
16450;SDS011;12243;42.708;23.310;2023-04-01T14:27:51;8.63;;;4.63;;
16450;SDS011;12243;42.708;23.310;2023-04-01T14:33:22;5.55;;;3.92;;
16450;SDS011;12243;42.708;23.310;2023-04-01T14:35:58;8.93;;;6.15;;
16450;SDS011;12243;42.708;23.310;2023-04-01T14:38:59;4.67;;;4.03;;
16450;SDS011;12243;42.708;23.310;2023-04-01T14:41:41;3.50;;;3.20;;
16450;SDS011;12243;42.708;23.310;2023-04-01T14:44:18;5.27;;;4.07;;
16450;SDS011;12243;42.708;23.310;2023-04-01T14:49:52;4.13;;;3.70;;
16450;SDS011;12243;42.708;23.310;2023-04-01T14:52:25;6.88;;;3.63;;
16450;SDS011;12243;42.708;23.310;2023-04-01T14:54:55;4.00;;;3.60;;
16450;SDS011;12243;42.708;23.310;2023-04-01T14:57:27;4.65;;;3.63;;
16450;SDS011;12243;42.708;23.310;2023-04-01T14:59:59;5.67;;;4.20;;
16450;SDS011;12243;42.708;23.310;2023-04-01T15:02:33;4.70;;;4.07;;
16450;SDS011;12243;42.708;23.310;2023-04-01T15:05:16;9.17;;;4.97;;
16450;SDS011;12243;42.708;23.310;2023-04-01T15:08:02;6.73;;;3.50;;
16450;SDS011;12243;42.708;23.310;2023-04-01T15:10:59;5.00;;;3.63;;
16450;SDS011;12243;42.708;23.310;2023-04-01T15:16:31;4.63;;;3.20;;
16450;SDS011;12243;42.708;23.310;2023-04-01T15:19:10;8.73;;;7.53;;
16450;SDS011;12243;42.708;23.310;2023-04-01T15:21:50;7.37;;;3.53;;
16450;SDS011;12243;42.708;23.310;2023-04-01T15:24:28;5.47;;;3.13;;
16450;SDS011;12243;42.708;23.310;2023-04-01T15:27:19;6.10;;;2.87;;
16450;SDS011;12243;42.708;23.310;2023-04-01T15:30:12;3.30;;;3.00;;
16450;SDS011;12243;42.708;23.310;2023-04-01T15:32:51;3.17;;;2.87;;
16450;SDS011;12243;42.708;23.310;2023-04-01T15:35:35;3.87;;;2.60;;
16450;SDS011;12243;42.708;23.310;2023-04-01T15:38:14;3.53;;;2.80;;
16450;SDS011;12243;42.708;23.310;2023-04-01T15:40:49;3.90;;;2.97;;
16450;SDS011;12243;42.708;23.310;2023-04-01T15:43:27;3.17;;;2.83;;
16450;SDS011;12243;42.708;23.310;2023-04-01T15:49:09;2.40;;;2.10;;
16450;SDS011;12243;42.708;23.310;2023-04-01T15:51:58;8.97;;;2.23;;
16450;SDS011;12243;42.708;23.310;2023-04-01T15:57:49;4.57;;;2.30;;
16450;SDS011;12243;42.708;23.310;2023-04-01T16:00:24;2.83;;;2.63;;
16450;SDS011;12243;42.708;23.310;2023-04-01T16:03:08;3.80;;;3.50;;
16450;SDS011;12243;42.708;23.310;2023-04-01T16:05:47;3.43;;;3.20;;
16450;SDS011;12243;42.708;23.310;2023-04-01T16:08:34;5.03;;;3.93;;
16450;SDS011;12243;42.708;23.310;2023-04-01T16:11:14;3.67;;;3.33;;
16450;SDS011;12243;42.708;23.310;2023-04-01T16:13:53;5.03;;;4.53;;
16450;SDS011;12243;42.708;23.310;2023-04-01T16:16:31;4.83;;;3.50;;
16450;SDS011;12243;42.708;23.310;2023-04-01T16:19:19;5.23;;;4.07;;
16450;SDS011;12243;42.708;23.310;2023-04-01T16:21:59;3.90;;;3.60;;
16450;SDS011;12243;42.708;23.310;2023-04-01T16:24:32;4.27;;;3.90;;
16450;SDS011;12243;42.708;23.310;2023-04-01T16:27:02;5.00;;;4.60;;
16450;SDS011;12243;42.708;23.310;2023-04-01T16:29:37;4.07;;;3.77;;
16450;SDS011;12243;42.708;23.310;2023-04-01T16:32:22;3.67;;;3.40;;
16450;SDS011;12243;42.708;23.310;2023-04-01T16:35:21;4.20;;;3.90;;
16450;SDS011;12243;42.708;23.310;2023-04-01T16:37:56;5.13;;;4.63;;
16450;SDS011;12243;42.708;23.310;2023-04-01T16:40:35;5.70;;;5.10;;
16450;SDS011;12243;42.708;23.310;2023-04-01T16:43:11;3.87;;;3.57;;
16450;SDS011;12243;42.708;23.310;2023-04-01T16:45:46;3.20;;;3.00;;
16450;SDS011;12243;42.708;23.310;2023-04-01T16:48:22;2.50;;;2.40;;
16450;SDS011;12243;42.708;23.310;2023-04-01T16:50:58;3.30;;;3.10;;
16450;SDS011;12243;42.708;23.310;2023-04-01T16:53:30;2.07;;;2.00;;
16450;SDS011;12243;42.708;23.310;2023-04-01T16:56:08;2.50;;;2.37;;
16450;SDS011;12243;42.708;23.310;2023-04-01T16:58:40;2.90;;;2.70;;
16450;SDS011;12243;42.708;23.310;2023-04-01T17:01:11;2.70;;;2.50;;
16450;SDS011;12243;42.708;23.310;2023-04-01T17:03:42;2.90;;;2.80;;
16450;SDS011;12243;42.708;23.310;2023-04-01T17:06:19;2.00;;;1.90;;
16450;SDS011;12243;42.708;23.310;2023-04-01T17:11:49;2.53;;;2.33;;
16450;SDS011;12243;42.708;23.310;2023-04-01T17:14:28;2.47;;;2.37;;
16450;SDS011;12243;42.708;23.310;2023-04-01T17:17:16;2.30;;;2.20;;